createdAt,value
2022-11-12T00:09:14.723Z,102
2022-11-12T00:14:54.794Z,94
2022-11-12T00:20:35.814Z,90
2022-11-12T00:26:16.414Z,104
2022-11-12T00:31:56.565Z,106
2022-11-12T00:37:38.211Z,84
2022-11-12T00:43:18.159Z,90
2022-11-12T00:48:58.218Z,110
2022-11-12T00:54:39.051Z,98
2022-11-12T01:00:19.022Z,104
2022-11-12T01:05:59.069Z,106
2022-11-12T01:11:40.723Z,100
2022-11-12T01:17:21.606Z,106
2022-11-12T01:23:01.867Z,88
2022-11-12T01:34:23.366Z,86
2022-11-12T01:40:03.556Z,84
2022-11-12T01:45:45.040Z,104
2022-11-12T01:51:25.552Z,90
2022-11-12T01:57:05.962Z,96
2022-11-12T02:02:47.410Z,90
2022-11-12T02:08:28.993Z,104
2022-11-12T02:14:08.963Z,82
2022-11-12T02:19:50.086Z,94
2022-11-12T02:25:30.071Z,106
2022-11-12T02:31:10.202Z,80
2022-11-12T02:36:51.027Z,106
2022-11-12T02:42:31.082Z,98
2022-11-12T02:48:19.836Z,100
2022-11-12T02:54:01.401Z,90
2022-11-12T02:59:41.946Z,94
2022-11-12T03:05:22.205Z,88
2022-11-12T03:11:03.470Z,86
2022-11-12T03:16:45.301Z,104
2022-11-12T03:22:25.326Z,106
2022-11-12T03:28:06.666Z,98
2022-11-12T03:33:49.045Z,84
2022-11-12T03:39:29.118Z,94
2022-11-12T03:45:10.372Z,100
2022-11-12T03:50:50.655Z,100
2022-11-12T03:56:30.903Z,98
2022-11-12T04:02:12.242Z,96
2022-11-12T04:07:52.814Z,80
2022-11-12T04:13:33.180Z,94
2022-11-12T04:19:14.412Z,100
2022-11-12T04:24:54.281Z,96
2022-11-12T04:30:34.333Z,90
2022-11-12T04:36:15.547Z,94
2022-11-12T04:41:55.916Z,94
2022-11-12T04:47:35.875Z,84
2022-11-12T04:53:17.219Z,88
2022-11-12T04:58:57.242Z,82
2022-11-12T05:04:37.448Z,90
2022-11-12T05:10:18.255Z,88
2022-11-12T05:15:58.440Z,80
2022-11-12T05:21:44.247Z,104
2022-11-12T05:33:05.701Z,88
2022-11-12T05:38:45.709Z,94
2022-11-12T05:44:26.900Z,94
2022-11-12T05:50:06.878Z,100
2022-11-12T05:55:46.984Z,88
2022-11-12T06:01:28.145Z,88
2022-11-12T06:07:09.042Z,138
2022-11-12T06:12:49.341Z,84
2022-11-12T06:18:31.247Z,98
2022-11-12T06:24:11.921Z,84
2022-11-12T06:29:52.084Z,84
2022-11-12T06:35:32.907Z,86
2022-11-12T06:41:13.519Z,88
2022-11-12T06:46:53.692Z,94
2022-11-12T06:52:34.800Z,84
2022-11-12T06:58:14.830Z,98
2022-11-12T07:03:54.841Z,98
2022-11-12T07:09:35.794Z,98
2022-11-12T07:15:16.048Z,102
2022-11-12T07:20:56.403Z,90
2022-11-12T07:26:37.647Z,102
2022-11-12T07:32:18.321Z,88
2022-11-12T07:38:00.284Z,98
2022-11-12T07:43:41.979Z,86
2022-11-12T07:49:22.357Z,90
2022-11-12T07:55:02.593Z,100
2022-11-12T08:00:44.460Z,116
2022-11-12T08:06:26.057Z,98
2022-11-12T08:12:06.664Z,104
2022-11-12T08:17:47.656Z,106
2022-11-12T08:23:28.035Z,104
2022-11-12T08:29:09.559Z,98
2022-11-12T08:34:51.870Z,100
2022-11-12T08:40:31.663Z,108
2022-11-12T08:46:11.636Z,110
2022-11-12T08:51:52.712Z,108
2022-11-12T08:57:32.776Z,98
2022-11-12T09:03:13.256Z,102
2022-11-12T09:08:54.565Z,110
2022-11-12T09:14:35.244Z,126
2022-11-12T09:20:15.407Z,110
2022-11-12T09:30:58.306Z,11
2022-11-12T09:36:40.687Z,22
2022-11-12T09:42:24.325Z,20
2022-11-12T09:48:05.502Z,16
2022-11-12T09:53:45.942Z,22
2022-11-12T09:59:25.981Z,24
2022-11-12T10:05:06.951Z,30
2022-11-12T10:10:46.613Z,22
2022-11-12T10:16:26.359Z,62
2022-11-12T10:22:10.769Z,22
2022-11-12T10:27:50.720Z,34
2022-11-12T10:33:30.816Z,16
2022-11-12T10:39:11.912Z,20
2022-11-12T10:44:52.120Z,42
2022-11-12T11:20:55.009Z,26
2022-11-12T11:26:35.377Z,6
2022-11-12T11:32:17.936Z,8
2022-11-12T11:38:02.942Z,12
2022-11-12T11:43:43.836Z,8
2022-11-12T11:49:26.988Z,14
2022-11-12T12:00:49.042Z,14
2022-11-12T12:06:28.521Z,6
2022-11-12T12:12:13.417Z,8
2022-11-12T12:17:53.958Z,4
2022-11-12T12:23:34.829Z,18
2022-11-12T12:29:16.002Z,8
2022-11-12T12:35:02.303Z,8
2022-11-12T12:40:42.654Z,14
2022-11-12T12:46:24.098Z,22
2022-11-12T12:52:04.416Z,42
2022-11-12T12:57:44.304Z,4
2022-11-12T13:03:25.974Z,2
2022-11-12T13:09:06.768Z,0
2022-11-12T13:14:47.262Z,0
2022-11-12T13:20:28.242Z,6
2022-11-12T13:26:08.383Z,12
2022-11-12T13:31:48.680Z,14
2022-11-12T13:37:29.741Z,14
2022-11-12T13:43:09.888Z,4
2022-11-12T13:48:50.125Z,30
2022-11-12T13:54:31.563Z,32
2022-11-12T14:00:12.657Z,38
2022-11-12T14:05:52.681Z,24
2022-11-12T14:11:37.319Z,78
2022-11-12T14:17:23.039Z,80
2022-11-12T14:23:05.948Z,88
2022-11-12T14:28:46.961Z,88
2022-11-12T14:40:07.111Z,76
2022-11-12T14:45:48.576Z,84
2022-11-12T14:51:31.182Z,98
2022-11-12T14:57:11.039Z,98
2022-11-12T15:03:01.474Z,106
2022-11-12T15:08:41.783Z,98
2022-11-12T15:14:22.382Z,110
2022-11-12T15:20:04.574Z,94
2022-11-12T15:25:45.368Z,92
2022-11-12T15:31:26.455Z,104
2022-11-12T15:37:08.959Z,106
2022-11-12T15:42:49.532Z,104
2022-11-12T15:54:13.939Z,110
2022-11-12T15:59:55.372Z,106
2022-11-12T16:05:36.728Z,104
2022-11-12T16:11:19.037Z,102
2022-11-12T16:17:00.316Z,104
2022-11-12T16:22:41.892Z,94
2022-11-12T16:28:24.641Z,88
2022-11-12T16:34:06.225Z,94
2022-11-12T16:39:46.818Z,112
2022-11-12T16:45:27.672Z,102
2022-11-12T16:51:10.589Z,102
2022-11-12T16:56:50.909Z,94
2022-11-12T17:02:31.921Z,108
2022-11-12T17:08:12.220Z,92
2022-11-12T17:13:52.706Z,94
2022-11-12T17:19:33.860Z,110
2022-11-12T17:25:16.361Z,98
2022-11-12T17:30:56.453Z,104
2022-11-12T17:36:45.164Z,100
2022-11-12T17:42:25.546Z,104
2022-11-12T17:48:08.509Z,86
2022-11-12T17:53:53.166Z,104
2022-11-12T17:59:33.435Z,102
2022-11-12T18:05:15.729Z,98
2022-11-12T18:10:56.767Z,104
2022-11-12T18:16:40.034Z,108
2022-11-12T18:22:29.899Z,90
2022-11-12T18:33:52.477Z,94
2022-11-12T18:39:38.588Z,104
2022-11-12T18:45:20.017Z,94
2022-11-12T18:51:02.726Z,90
2022-11-12T18:56:42.786Z,108
2022-11-12T19:02:29.809Z,96
2022-11-12T19:08:17.974Z,88
2022-11-12T19:14:00.714Z,98
2022-11-12T19:19:41.968Z,80
2022-11-12T19:25:23.161Z,94
2022-11-12T19:31:20.658Z,84
2022-11-12T19:37:44.601Z,110
2022-11-12T19:43:28.177Z,98
2022-11-12T19:49:13.929Z,100
2022-11-12T19:54:55.532Z,104
2022-11-12T20:00:36.266Z,104
2022-11-12T20:06:19.285Z,98
2022-11-12T20:12:00.477Z,102
2022-11-12T20:17:40.613Z,100
2022-11-12T20:23:27.918Z,102
2022-11-12T20:29:09.413Z,104
2022-11-12T20:34:49.770Z,84
2022-11-12T20:40:33.029Z,106
2022-11-12T20:52:01.303Z,96
2022-11-12T20:57:44.039Z,94
2022-11-12T21:03:25.264Z,98
2022-11-12T21:09:06.730Z,94
2022-11-12T21:14:52.016Z,98
2022-11-12T21:20:33.287Z,102
2022-11-12T21:26:13.791Z,106
2022-11-12T21:31:53.848Z,90
2022-11-12T21:37:35.347Z,98
2022-11-12T21:43:15.400Z,102
2022-11-12T21:48:56.383Z,100
2022-11-12T21:54:38.028Z,90
2022-11-12T22:00:43.480Z,102
2022-11-12T22:06:23.887Z,90
2022-11-12T22:12:07.144Z,92
2022-11-12T22:17:47.287Z,104
2022-11-12T22:23:27.817Z,100
2022-11-12T22:29:11.463Z,90
2022-11-12T22:34:51.483Z,84
2022-11-12T22:40:32.708Z,92
2022-11-12T22:46:16.845Z,100
2022-11-12T22:52:01.213Z,90
2022-11-12T22:57:41.143Z,98
2022-11-12T23:03:22.447Z,98
2022-11-12T23:09:02.486Z,98
2022-11-12T23:14:44.892Z,88
2022-11-12T23:26:05.867Z,94
2022-11-12T23:31:45.802Z,106
2022-11-12T23:37:27.311Z,106
2022-11-12T23:43:08.476Z,90
2022-11-12T23:48:48.858Z,100
2022-11-12T23:54:32.446Z,98
